LICD Airport Information

Runway Information
Runway 08 Length 5906 ft width 148 ft
Elevation 48 ft Threshold 0 ft Heading 81
Runway 26 Length 5906 ft Width 148 ft
Elevation 70 ft Threshold 0 ft Heading 261
Airport Frequencies
Type AFIS Name INFO Frequency 122.1 MHZ
Airport Navaids
Type VOR-DME Name Lampedusa Frequency 108600 KHZ
Type NDB Name Lampedusa Frequency 373 KHZ
Airport Weather Information & NOTAM
ADDS - METARS form results

(2026 UTC 18 July 2019)
Data provider http://aviationweather.gov/metar/data/
 
METAR text: LICD 181950Z VRB02KT CAVOK 25/21 Q1014
Conditions at: LICD (LAMPEDUSA ISLAND, IT) observed 1950 UTC 18 July 2019
Temperature: 25.0°C (77°F)
Dewpoint: 21.0°C (70°F) [RH = 79%]
Pressure (altimeter): 29.94 inches Hg (1014.0 mb)
Winds: variable direction winds at 2 MPH (2 knots; 1.0 m/s)
Visibility: 6 or more miles (10+ km)
Ceiling: ceiling and visibility are OK
Clouds: unknown
Weather: no significant weather observed at this time

Forecast for: LICD (LAMPEDUSA ISLAND, IT)
Text: TAF LICD 181700Z 1818/1918 VRB05KT 9999 FEW030
Forecast period: 1800 UTC 18 July 2019 to 1800 UTC 19 July 2019
Forecast type: FROM: standard forecast or significant change
Winds: variable direction winds at 6 MPH (5 knots; 2.6 m/s)
Visibility: 6 or more miles 10+ km)
Ceiling: at least 12,000 feet AGL
Clouds: few clouds at 3000 feet AGL
Weather: no significant weather forecast for this period